Time;durP1;ratioP1;P1;durP2;ratioP2;P2;SDS_P1;SDS_P2;PMS_P1;PMS_P2;Temp;Humidity;BMP_temperature;BMP_pressure;BME280_temperature;BME280_humidity;BME280_pressure;Samples;Min_cycle;Max_cycle;Signal;HPM_P1;HPM_P2
2024/01/25 00:01:12;;;;;;;19.70;4.57;;;6.90;99.90;;;;;;4909800;29;20028;-54
2024/01/25 00:03:38;;;;;;;24.65;5.47;;;6.90;99.90;;;;;;4913048;29;20040;-55
2024/01/25 00:06:05;;;;;;;15.98;4.10;;;6.80;99.90;;;;;;4920126;29;20182;-54
2024/01/25 00:08:31;;;;;;;15.20;4.10;;;6.80;99.90;;;;;;4921739;29;20040;-56
2024/01/25 00:10:56;;;;;;;23.02;4.85;;;6.60;99.90;;;;;;4928349;29;20478;-54
2024/01/25 00:13:22;;;;;;;22.23;4.95;;;6.40;99.90;;;;;;4930840;29;20077;-52
2024/01/25 00:15:49;;;;;;;23.75;4.60;;;6.30;99.90;;;;;;4920402;29;20115;-53
2024/01/25 00:18:15;;;;;;;25.45;5.18;;;6.20;99.90;;;;;;4926137;29;20131;-57
2024/01/25 00:20:40;;;;;;;13.98;3.85;;;6.20;99.90;;;;;;4926653;29;20028;-55
2024/01/25 00:23:06;;;;;;;14.98;4.03;;;6.30;99.90;;;;;;4926897;29;20131;-53
2024/01/25 00:25:32;;;;;;;18.90;5.82;;;6.10;99.90;;;;;;4928708;29;20126;-53
2024/01/25 00:27:58;;;;;;;18.63;4.18;;;6.00;99.90;;;;;;4919204;29;20151;-55
2024/01/25 00:30:23;;;;;;;20.27;3.92;;;5.90;99.90;;;;;;4913835;29;20031;-54
2024/01/25 00:32:49;;;;;;;13.27;3.85;;;5.90;99.90;;;;;;4915530;29;20024;-54
2024/01/25 00:35:15;;;;;;;14.20;3.60;;;6.00;99.90;;;;;;4915274;29;20391;-53
2024/01/25 00:37:41;;;;;;;18.05;4.00;;;5.90;99.90;;;;;;4915829;29;20472;-51
2024/01/25 00:40:08;;;;;;;13.10;3.47;;;5.90;99.90;;;;;;4916083;29;20028;-54
2024/01/25 00:42:41;;;;;;;16.13;4.82;;;5.90;99.90;;;;;;4914675;29;20024;-54
2024/01/25 00:45:07;;;;;;;15.55;4.25;;;5.80;99.90;;;;;;4915394;29;20115;-54
2024/01/25 00:47:33;;;;;;;18.27;4.57;;;5.80;99.90;;;;;;4914386;29;20499;-54
2024/01/25 00:49:59;;;;;;;22.00;4.68;;;5.80;99.90;;;;;;4915345;29;20071;-53
2024/01/25 00:52:25;;;;;;;15.13;4.53;;;5.80;99.90;;;;;;4915641;29;20044;-54
2024/01/25 00:54:51;;;;;;;17.55;4.63;;;5.80;99.90;;;;;;4915458;29;20028;-53
2024/01/25 00:57:17;;;;;;;17.33;4.80;;;5.80;99.90;;;;;;4908717;29;20035;-54
2024/01/25 00:59:43;;;;;;;18.00;4.15;;;5.70;99.90;;;;;;4915039;29;20024;-55
2024/01/25 01:02:12;;;;;;;19.15;5.03;;;5.60;99.90;;;;;;4914621;29;20050;-53
2024/01/25 01:04:38;;;;;;;16.70;4.90;;;5.50;99.90;;;;;;4908745;29;20050;-55
2024/01/25 01:07:04;;;;;;;22.17;5.40;;;5.50;99.90;;;;;;4915292;29;20040;-56
2024/01/25 01:09:30;;;;;;;22.65;4.70;;;5.50;99.90;;;;;;4907568;29;20048;-56
2024/01/25 01:11:55;;;;;;;13.82;3.75;;;5.50;99.90;;;;;;4915307;29;20052;-58
2024/01/25 01:14:21;;;;;;;15.20;4.45;;;5.50;99.90;;;;;;4913444;29;20024;-55
2024/01/25 01:16:47;;;;;;;18.90;4.97;;;5.40;99.90;;;;;;4913637;29;20132;-54
2024/01/25 01:19:12;;;;;;;13.95;4.15;;;5.40;99.90;;;;;;4914523;29;20028;-57
2024/01/25 01:21:41;;;;;;;23.00;4.93;;;5.40;99.90;;;;;;4914669;29;20035;-60
2024/01/25 01:24:06;;;;;;;13.60;4.82;;;5.40;99.90;;;;;;4914783;29;20048;-57
2024/01/25 01:26:35;;;;;;;22.52;4.32;;;5.30;99.90;;;;;;4913495;29;20040;-57
2024/01/25 01:29:00;;;;;;;18.05;4.10;;;5.20;99.90;;;;;;4907716;29;20074;-55
2024/01/25 01:31:26;;;;;;;14.82;4.13;;;5.20;99.90;;;;;;4909414;29;20032;-54
2024/01/25 01:33:51;;;;;;;10.10;3.55;;;5.10;99.90;;;;;;4914329;29;20028;-58
2024/01/25 01:36:17;;;;;;;20.83;5.85;;;5.00;99.90;;;;;;4913540;29;20396;-56
2024/01/25 01:38:43;;;;;;;12.25;3.78;;;4.90;99.90;;;;;;4905339;29;20024;-53
2024/01/25 01:41:12;;;;;;;22.50;4.60;;;5.00;99.90;;;;;;4914532;29;20030;-56
2024/01/25 01:43:38;;;;;;;17.15;3.75;;;5.00;99.90;;;;;;4914313;29;20032;-56
2024/01/25 01:46:20;;;;;;;22.38;4.65;;;5.10;99.90;;;;;;4909834;29;20452;-54
2024/01/25 01:48:46;;;;;;;14.15;4.25;;;5.10;99.90;;;;;;4913258;29;20028;-52
2024/01/25 01:51:12;;;;;;;15.98;3.30;;;5.10;99.90;;;;;;4913501;29;20086;-55
2024/01/25 01:53:37;;;;;;;13.15;3.13;;;5.00;99.90;;;;;;4914549;29;20164;-55
2024/01/25 01:56:04;;;;;;;20.08;3.20;;;4.90;99.90;;;;;;4906121;29;20035;-54
2024/01/25 01:58:31;;;;;;;21.05;3.47;;;4.80;99.90;;;;;;4913013;29;20091;-51
2024/01/25 02:00:59;;;;;;;19.63;4.35;;;4.80;99.90;;;;;;4908036;29;20102;-57
2024/01/25 02:03:24;;;;;;;19.45;3.72;;;4.80;99.90;;;;;;4912363;29;20036;-55
2024/01/25 02:05:50;;;;;;;19.50;3.85;;;4.90;99.90;;;;;;4912284;29;20027;-54
2024/01/25 02:08:16;;;;;;;15.50;3.80;;;4.90;99.90;;;;;;4914517;29;20036;-57
2024/01/25 02:10:43;;;;;;;23.90;4.57;;;4.90;99.90;;;;;;4913259;29;20025;-54
2024/01/25 02:13:08;;;;;;;22.90;4.43;;;4.90;99.90;;;;;;4914112;29;20076;-54
2024/01/25 02:15:34;;;;;;;24.02;3.97;;;4.90;99.90;;;;;;4913874;29;20028;-52
2024/01/25 02:18:00;;;;;;;20.70;4.45;;;4.80;99.90;;;;;;4914599;29;20031;-56
2024/01/25 02:20:26;;;;;;;19.65;4.40;;;4.80;99.90;;;;;;4913961;29;20035;-57
2024/01/25 02:22:51;;;;;;;10.02;2.95;;;4.80;99.90;;;;;;4911518;29;20063;-57
2024/01/25 02:25:17;;;;;;;26.23;4.20;;;4.80;99.90;;;;;;4910920;29;20079;-56
2024/01/25 02:27:42;;;;;;;16.67;3.88;;;4.90;99.90;;;;;;4907546;29;20048;-55
2024/01/25 02:30:08;;;;;;;22.63;4.72;;;4.90;99.90;;;;;;4913386;29;20028;-55
2024/01/25 02:32:34;;;;;;;25.42;4.40;;;4.90;99.90;;;;;;4914055;29;20044;-56
2024/01/25 02:35:00;;;;;;;23.33;4.00;;;4.90;99.90;;;;;;4905323;29;20040;-55
2024/01/25 02:37:26;;;;;;;23.02;3.80;;;4.90;99.90;;;;;;4913667;29;20475;-54
2024/01/25 02:39:52;;;;;;;22.95;4.55;;;4.90;99.90;;;;;;4909211;29;20383;-53
2024/01/25 02:42:18;;;;;;;35.05;5.57;;;4.80;99.90;;;;;;4905883;29;20070;-54
2024/01/25 02:44:44;;;;;;;19.05;4.15;;;4.80;99.90;;;;;;4912139;29;20554;-54
2024/01/25 02:47:10;;;;;;;17.42;4.05;;;4.70;99.90;;;;;;4913751;29;20495;-58
2024/01/25 02:49:36;;;;;;;24.13;3.20;;;4.70;99.90;;;;;;4908217;29;20032;-54
2024/01/25 02:52:02;;;;;;;17.25;4.00;;;4.60;99.90;;;;;;4913571;29;20103;-53
2024/01/25 02:54:27;;;;;;;24.08;4.03;;;4.60;99.90;;;;;;4908757;29;20069;-52
2024/01/25 02:56:53;;;;;;;16.67;4.35;;;4.60;99.90;;;;;;4911828;29;20181;-51
2024/01/25 02:59:19;;;;;;;21.73;3.40;;;4.60;99.90;;;;;;4913874;29;20060;-52
2024/01/25 03:01:44;;;;;;;20.05;3.80;;;4.60;99.90;;;;;;4909784;29;20031;-57
2024/01/25 03:04:11;;;;;;;26.63;4.68;;;4.60;99.90;;;;;;4914653;29;20032;-53
2024/01/25 03:06:37;;;;;;;24.67;4.00;;;4.60;99.90;;;;;;4917315;29;20021;-54
2024/01/25 03:09:06;;;;;;;28.42;4.00;;;4.70;99.90;;;;;;4915841;29;20086;-56
2024/01/25 03:11:32;;;;;;;11.93;4.18;;;4.60;99.90;;;;;;4916077;29;20051;-57
2024/01/25 03:13:57;;;;;;;28.90;4.32;;;4.60;99.90;;;;;;4916532;29;20475;-55
2024/01/25 03:16:23;;;;;;;21.52;3.65;;;4.70;99.90;;;;;;4915602;29;20139;-53
2024/01/25 03:18:49;;;;;;;23.67;4.25;;;4.70;99.90;;;;;;4916883;29;20071;-51
2024/01/25 03:21:14;;;;;;;22.85;3.85;;;4.70;99.90;;;;;;4910906;29;20275;-52
2024/01/25 03:23:40;;;;;;;18.20;3.30;;;4.70;99.90;;;;;;4916746;29;20673;-54
2024/01/25 03:26:06;;;;;;;19.10;3.33;;;4.70;99.90;;;;;;4916800;29;20075;-51
2024/01/25 03:28:34;;;;;;;10.25;3.00;;;4.70;99.90;;;;;;4917142;29;20056;-54
2024/01/25 03:31:00;;;;;;;11.48;2.92;;;4.60;99.90;;;;;;4914654;29;20036;-51
2024/01/25 03:33:27;;;;;;;27.90;4.63;;;4.70;99.90;;;;;;4912531;29;20476;-51
2024/01/25 03:35:52;;;;;;;24.42;3.80;;;4.70;99.90;;;;;;4912153;29;20036;-54
2024/01/25 03:38:18;;;;;;;17.33;4.45;;;4.80;99.90;;;;;;4915267;29;20700;-52
2024/01/25 03:40:44;;;;;;;23.25;4.82;;;4.90;99.90;;;;;;4917149;29;20364;-54
2024/01/25 03:43:10;;;;;;;16.83;3.55;;;5.00;99.90;;;;;;4907702;29;20056;-51
2024/01/25 03:45:35;;;;;;;23.40;3.50;;;5.00;99.90;;;;;;4913920;29;20368;-51
2024/01/25 03:48:01;;;;;;;16.73;3.65;;;5.00;99.90;;;;;;4915375;29;20084;-54
2024/01/25 03:50:27;;;;;;;16.13;3.75;;;5.00;99.90;;;;;;4915839;29;20020;-53
2024/01/25 03:52:53;;;;;;;30.08;3.85;;;5.10;99.90;;;;;;4915330;29;20056;-55
2024/01/25 03:55:18;;;;;;;19.85;3.75;;;5.10;99.90;;;;;;4916669;29;20095;-54
2024/01/25 03:57:45;;;;;;;10.48;2.88;;;5.20;99.90;;;;;;4912901;29;20032;-57
2024/01/25 04:00:11;;;;;;;12.60;3.70;;;5.30;99.90;;;;;;4914410;29;20032;-55
2024/01/25 04:02:37;;;;;;;14.98;3.95;;;5.40;99.90;;;;;;4915007;29;20044;-54
2024/01/25 04:05:03;;;;;;;14.50;4.00;;;5.50;99.90;;;;;;4911590;29;20575;-58
2024/01/25 04:07:29;;;;;;;14.35;3.50;;;5.50;99.90;;;;;;4912149;29;20487;-57
2024/01/25 04:09:55;;;;;;;13.57;3.20;;;5.60;99.90;;;;;;4915054;29;20030;-54
2024/01/25 04:12:20;;;;;;;11.07;3.08;;;5.60;99.90;;;;;;4912017;29;20027;-56
2024/01/25 04:14:46;;;;;;;20.52;3.08;;;5.70;99.90;;;;;;4914505;29;20123;-54
2024/01/25 04:17:12;;;;;;;10.10;3.03;;;5.70;99.90;;;;;;4908705;29;20063;-54
2024/01/25 04:19:38;;;;;;;16.77;2.90;;;5.80;99.90;;;;;;4913073;29;20035;-55
2024/01/25 04:22:03;;;;;;;15.77;3.40;;;5.80;99.90;;;;;;4906681;29;20037;-54
2024/01/25 04:24:29;;;;;;;17.45;3.53;;;5.90;99.90;;;;;;4915443;29;20048;-54
2024/01/25 04:26:55;;;;;;;21.50;3.15;;;5.90;99.90;;;;;;4914047;29;20051;-55
2024/01/25 04:29:20;;;;;;;13.57;3.42;;;6.00;99.90;;;;;;4915641;29;20094;-56
2024/01/25 04:31:48;;;;;;;14.82;3.13;;;6.10;99.90;;;;;;4915160;29;20024;-56
2024/01/25 04:34:13;;;;;;;17.35;3.60;;;6.10;99.90;;;;;;4916088;29;20448;-54
2024/01/25 04:36:39;;;;;;;10.70;2.90;;;6.20;99.90;;;;;;4903307;29;20510;-53
2024/01/25 04:39:05;;;;;;;18.67;3.45;;;6.30;99.90;;;;;;4915447;29;20036;-56
2024/01/25 04:41:31;;;;;;;12.20;3.25;;;6.30;99.90;;;;;;4914453;29;20059;-57
2024/01/25 04:43:56;;;;;;;19.38;3.38;;;6.40;99.90;;;;;;4916018;29;20076;-55
2024/01/25 04:46:22;;;;;;;15.18;4.15;;;6.40;99.90;;;;;;4914312;29;20024;-54
2024/01/25 04:48:47;;;;;;;15.52;2.78;;;6.50;99.90;;;;;;4915184;29;20032;-53
2024/01/25 04:51:17;;;;;;;13.82;3.38;;;6.60;99.90;;;;;;4915672;29;20468;-51
2024/01/25 04:53:43;;;;;;;16.80;3.17;;;6.60;99.90;;;;;;4915501;29;20028;-56
2024/01/25 04:56:09;;;;;;;11.30;2.88;;;6.60;99.90;;;;;;4915106;29;20625;-56
2024/01/25 04:58:35;;;;;;;15.07;3.47;;;6.70;99.90;;;;;;4915057;29;20032;-59
2024/01/25 05:01:01;;;;;;;14.88;3.03;;;6.70;99.90;;;;;;4911220;29;20036;-56
2024/01/25 05:03:26;;;;;;;10.48;3.25;;;6.80;99.90;;;;;;4913991;29;20051;-58
2024/01/25 05:05:52;;;;;;;16.98;3.15;;;6.80;99.90;;;;;;4909646;29;20058;-53
2024/01/25 05:08:18;;;;;;;20.92;3.92;;;6.80;99.90;;;;;;4915271;29;20035;-55
2024/01/25 05:10:43;;;;;;;11.65;3.15;;;6.80;99.90;;;;;;4913663;29;20490;-55
2024/01/25 05:13:09;;;;;;;15.38;3.25;;;6.80;99.90;;;;;;4914911;29;20039;-54
2024/01/25 05:15:35;;;;;;;21.15;3.40;;;6.80;99.90;;;;;;4906605;29;20395;-55
2024/01/25 05:18:02;;;;;;;17.08;2.97;;;6.90;99.90;;;;;;4906809;29;20028;-55
2024/01/25 05:20:37;;;;;;;19.00;3.95;;;6.90;99.90;;;;;;4914465;29;20364;-55
2024/01/25 05:23:03;;;;;;;15.75;3.58;;;7.00;99.90;;;;;;4907654;29;20071;-56
2024/01/25 05:25:30;;;;;;;12.75;2.92;;;7.00;99.90;;;;;;4913957;29;20048;-54
2024/01/25 05:27:59;;;;;;;13.82;3.20;;;7.10;99.90;;;;;;4911062;29;20063;-56
2024/01/25 05:30:25;;;;;;;21.55;4.65;;;7.20;99.90;;;;;;4913505;29;20032;-54
2024/01/25 05:32:53;;;;;;;17.98;3.50;;;7.30;99.90;;;;;;4910973;29;20101;-59
2024/01/25 05:35:19;;;;;;;19.95;4.32;;;7.40;99.90;;;;;;4916431;29;20114;-57
2024/01/25 05:37:45;;;;;;;15.50;3.10;;;7.50;99.90;;;;;;4914553;29;20040;-55
2024/01/25 05:40:11;;;;;;;20.88;3.47;;;7.50;99.90;;;;;;4918218;29;20024;-56
2024/01/25 05:42:37;;;;;;;18.15;3.30;;;7.60;99.90;;;;;;4910830;29;20036;-57
2024/01/25 05:45:03;;;;;;;23.70;3.38;;;7.60;99.90;;;;;;4918441;29;20034;-56
2024/01/25 05:47:30;;;;;;;23.20;4.18;;;7.70;99.90;;;;;;4914686;29;20076;-57
2024/01/25 05:49:56;;;;;;;20.17;3.25;;;7.70;99.90;;;;;;4915421;29;20511;-60
2024/01/25 05:52:23;;;;;;;14.68;3.13;;;7.70;99.90;;;;;;4930883;29;20032;-58
2024/01/25 05:54:49;;;;;;;17.23;4.72;;;7.80;99.90;;;;;;4917418;29;20036;-55
2024/01/25 05:57:15;;;;;;;28.80;3.47;;;7.80;99.90;;;;;;4930187;29;20480;-54
2024/01/25 05:59:41;;;;;;;24.02;4.10;;;8.00;99.90;;;;;;4928467;29;20102;-59
2024/01/25 06:02:08;;;;;;;15.90;2.97;;;8.10;99.90;;;;;;4915235;29;20043;-53
2024/01/25 06:04:34;;;;;;;22.60;3.38;;;8.20;99.90;;;;;;4901127;29;20062;-55
2024/01/25 06:06:59;;;;;;;17.38;3.00;;;8.30;99.90;;;;;;4908288;29;20067;-56
2024/01/25 06:09:25;;;;;;;20.60;3.53;;;8.40;99.90;;;;;;4912838;29;20047;-56
2024/01/25 06:11:51;;;;;;;16.30;4.57;;;8.40;99.90;;;;;;4916648;29;20036;-56
2024/01/25 06:14:17;;;;;;;19.98;4.00;;;8.30;99.90;;;;;;4917874;29;20046;-55
2024/01/25 06:16:44;;;;;;;24.73;3.75;;;8.30;99.90;;;;;;4917252;29;20107;-56
2024/01/25 06:19:10;;;;;;;24.65;3.78;;;8.40;99.90;;;;;;4917092;29;20108;-56
2024/01/25 06:21:37;;;;;;;18.67;2.83;;;8.40;99.90;;;;;;4916399;29;20123;-55
2024/01/25 06:24:04;;;;;;;16.15;3.55;;;8.50;99.90;;;;;;4915549;29;20164;-55
2024/01/25 06:26:29;;;;;;;17.15;4.15;;;8.50;99.90;;;;;;4917673;29;20399;-52
2024/01/25 06:28:56;;;;;;;14.60;3.30;;;8.50;99.90;;;;;;4916078;29;20032;-54
2024/01/25 06:31:22;;;;;;;14.20;2.58;;;8.60;99.90;;;;;;4915484;29;20036;-52
2024/01/25 06:33:50;;;;;;;9.60;2.55;;;8.70;99.90;;;;;;4910555;29;20504;-53
2024/01/25 06:36:16;;;;;;;13.63;1.88;;;8.80;99.90;;;;;;4915006;29;20138;-51
2024/01/25 06:38:42;;;;;;;10.55;1.55;;;8.90;99.90;;;;;;4919696;29;20020;-53
2024/01/25 06:41:08;;;;;;;6.47;1.85;;;8.90;99.90;;;;;;4919637;29;20395;-54
2024/01/25 06:43:34;;;;;;;7.30;1.58;;;9.10;99.90;;;;;;4917654;29;20092;-54
2024/01/25 06:45:59;;;;;;;5.93;1.40;;;9.10;99.90;;;;;;4919689;29;20024;-51
2024/01/25 06:48:25;;;;;;;6.32;1.55;;;9.20;99.90;;;;;;4920368;29;20038;-53
2024/01/25 06:50:51;;;;;;;7.10;1.50;;;9.30;99.90;;;;;;4919143;29;20024;-53
2024/01/25 06:53:17;;;;;;;11.23;1.88;;;9.30;99.90;;;;;;4919431;29;20028;-55
2024/01/25 06:55:42;;;;;;;6.60;2.10;;;9.30;99.90;;;;;;4918574;29;20091;-54
2024/01/25 06:58:08;;;;;;;6.50;1.40;;;9.30;99.90;;;;;;4917415;29;20075;-56
2024/01/25 07:00:34;;;;;;;5.53;1.33;;;9.30;99.90;;;;;;4917770;29;20055;-51
2024/01/25 07:03:00;;;;;;;9.20;1.65;;;9.30;99.90;;;;;;4917749;29;20099;-57
2024/01/25 07:05:26;;;;;;;2.55;1.00;;;9.30;99.90;;;;;;4917699;29;20028;-54
2024/01/25 07:07:53;;;;;;;5.82;1.00;;;9.30;99.90;;;;;;4917534;29;20178;-54
2024/01/25 07:10:18;;;;;;;6.15;1.73;;;9.30;99.90;;;;;;4917664;29;20484;-56
2024/01/25 07:12:44;;;;;;;6.30;1.58;;;9.30;99.90;;;;;;4917657;29;20020;-53
2024/01/25 07:15:10;;;;;;;6.88;1.55;;;9.30;99.90;;;;;;4917665;29;20530;-52
2024/01/25 07:17:35;;;;;;;5.40;1.05;;;9.30;99.90;;;;;;4917600;29;20671;-55
2024/01/25 07:20:01;;;;;;;13.75;1.73;;;9.30;99.90;;;;;;4917731;29;20091;-56
2024/01/25 07:22:27;;;;;;;2.35;1.00;;;9.30;99.90;;;;;;4916160;29;20484;-57
2024/01/25 07:24:53;;;;;;;9.00;1.20;;;9.40;99.90;;;;;;4917325;29;20082;-53
2024/01/25 07:27:18;;;;;;;7.07;1.25;;;9.40;99.90;;;;;;4917559;29;20064;-53
2024/01/25 07:29:45;;;;;;;3.80;1.02;;;9.40;99.90;;;;;;4917271;29;20115;-56
2024/01/25 07:32:11;;;;;;;7.15;1.40;;;9.40;99.90;;;;;;4917509;29;20033;-58
2024/01/25 07:34:37;;;;;;;7.78;1.92;;;9.40;99.90;;;;;;4917097;29;20059;-54
2024/01/25 07:37:03;;;;;;;8.95;1.45;;;9.40;99.90;;;;;;4917266;29;20028;-56
2024/01/25 07:39:29;;;;;;;9.27;1.58;;;9.40;99.90;;;;;;4917362;29;20032;-58
2024/01/25 07:41:54;;;;;;;8.05;1.73;;;9.40;99.90;;;;;;4917000;29;20035;-57
2024/01/25 07:44:20;;;;;;;5.43;1.08;;;9.40;99.90;;;;;;4917120;29;20064;-56
2024/01/25 07:46:46;;;;;;;8.68;1.55;;;9.40;99.90;;;;;;4918905;29;20439;-56
2024/01/25 07:49:11;;;;;;;4.28;1.15;;;9.40;99.90;;;;;;4917803;29;20119;-56
2024/01/25 07:51:37;;;;;;;5.22;1.27;;;9.40;99.90;;;;;;4919006;29;20024;-57
2024/01/25 07:54:03;;;;;;;3.70;0.85;;;9.40;99.90;;;;;;4919613;29;20024;-55
2024/01/25 07:56:29;;;;;;;11.50;1.42;;;9.40;99.90;;;;;;4917222;29;20039;-51
2024/01/25 07:58:55;;;;;;;3.15;1.00;;;9.40;99.90;;;;;;4918817;29;20088;-56
2024/01/25 08:01:21;;;;;;;5.18;1.45;;;9.40;99.90;;;;;;4916464;29;20032;-54
2024/01/25 08:03:47;;;;;;;5.93;1.20;;;9.50;99.90;;;;;;4916505;29;20044;-57
2024/01/25 08:06:13;;;;;;;2.92;1.05;;;9.40;99.90;;;;;;4916496;29;20031;-54
2024/01/25 08:08:39;;;;;;;3.55;1.27;;;9.50;99.90;;;;;;4916582;29;20028;-54
2024/01/25 08:11:05;;;;;;;4.78;1.60;;;9.50;99.90;;;;;;4916591;29;20031;-56
2024/01/25 08:13:31;;;;;;;11.15;1.80;;;9.50;99.90;;;;;;4916461;29;20490;-59
2024/01/25 08:15:57;;;;;;;5.53;2.00;;;9.60;99.90;;;;;;4916310;29;20099;-56
2024/01/25 08:18:23;;;;;;;9.25;2.22;;;9.60;99.90;;;;;;4916373;29;20039;-52
2024/01/25 08:20:50;;;;;;;20.83;2.40;;;9.60;99.90;;;;;;4916724;29;20025;-58
2024/01/25 08:23:15;;;;;;;11.32;2.30;;;9.60;99.90;;;;;;4916178;29;20090;-54
2024/01/25 08:25:42;;;;;;;11.50;2.30;;;9.70;99.90;;;;;;4916385;29;20134;-57
2024/01/25 08:28:07;;;;;;;13.48;2.38;;;9.70;99.90;;;;;;4916158;29;20055;-52
2024/01/25 08:30:33;;;;;;;9.18;2.00;;;9.70;99.90;;;;;;4916411;29;20473;-59
2024/01/25 08:32:59;;;;;;;10.60;2.45;;;9.80;99.90;;;;;;4916046;29;20067;-57
2024/01/25 08:35:25;;;;;;;17.48;2.88;;;9.80;99.90;;;;;;4914979;29;20024;-57
2024/01/25 08:37:50;;;;;;;24.70;3.40;;;9.80;99.90;;;;;;4916184;29;20043;-56
2024/01/25 08:40:16;;;;;;;37.28;3.75;;;9.90;99.90;;;;;;4915790;29;20063;-57
2024/01/25 08:42:42;;;;;;;13.30;2.88;;;9.90;99.90;;;;;;4915601;29;20139;-55
2024/01/25 08:45:08;;;;;;;26.10;3.20;;;10.00;99.90;;;;;;4915765;29;20491;-56
2024/01/25 08:47:37;;;;;;;7.55;2.72;;;10.00;99.90;;;;;;4916131;29;20032;-57
2024/01/25 08:50:05;;;;;;;9.68;3.40;;;9.90;99.90;;;;;;4917462;29;20040;-54
2024/01/25 08:52:31;;;;;;;14.07;3.53;;;10.00;99.90;;;;;;4934169;29;20034;-54
2024/01/25 08:54:56;;;;;;;11.18;3.60;;;10.10;99.90;;;;;;4933777;29;20027;-53
2024/01/25 08:57:22;;;;;;;8.13;3.58;;;10.10;99.90;;;;;;4934042;29;20031;-58
2024/01/25 08:59:48;;;;;;;13.52;3.63;;;10.20;99.90;;;;;;4932736;29;20100;-54
2024/01/25 09:02:13;;;;;;;15.60;4.35;;;10.30;99.90;;;;;;4919294;29;20032;-57
2024/01/25 09:04:42;;;;;;;11.23;3.63;;;10.30;99.90;;;;;;4915426;29;20468;-54
2024/01/25 09:07:08;;;;;;;11.80;3.88;;;10.30;99.90;;;;;;4915426;29;20051;-56
2024/01/25 09:09:34;;;;;;;10.27;3.67;;;10.40;99.90;;;;;;4915344;29;20102;-58
2024/01/25 09:12:00;;;;;;;12.85;4.68;;;10.40;99.90;;;;;;4915245;29;20047;-55
2024/01/25 09:14:25;;;;;;;12.23;4.38;;;10.40;99.90;;;;;;4915284;29;20380;-57
2024/01/25 09:16:51;;;;;;;14.15;4.15;;;10.50;99.90;;;;;;4915266;29;20020;-56
2024/01/25 09:19:17;;;;;;;12.35;4.30;;;10.50;99.90;;;;;;4915129;29;20044;-56
2024/01/25 09:21:43;;;;;;;12.75;3.78;;;10.50;99.90;;;;;;4914786;29;20026;-55
2024/01/25 09:24:09;;;;;;;12.98;3.90;;;10.60;99.90;;;;;;4914910;29;20079;-56
2024/01/25 09:26:34;;;;;;;16.33;3.72;;;10.60;99.90;;;;;;4926073;29;20055;-54
2024/01/25 09:29:00;;;;;;;14.02;3.88;;;10.60;99.90;;;;;;4918799;29;20032;-51
2024/01/25 09:31:26;;;;;;;15.73;3.42;;;10.70;99.90;;;;;;4915957;29;20483;-51
2024/01/25 09:33:51;;;;;;;13.40;4.40;;;10.70;99.90;;;;;;4919297;29;20047;-50
2024/01/25 09:36:17;;;;;;;13.70;4.05;;;10.80;99.90;;;;;;4920879;29;20032;-50
2024/01/25 09:38:43;;;;;;;16.35;3.78;;;10.80;99.90;;;;;;4921269;29;20103;-51
2024/01/25 09:41:09;;;;;;;12.65;3.08;;;10.80;99.90;;;;;;4918677;29;20025;-51
2024/01/25 09:43:36;;;;;;;13.95;3.03;;;10.90;99.90;;;;;;4922282;29;20036;-52
2024/01/25 09:46:02;;;;;;;14.05;3.35;;;10.90;99.90;;;;;;4918980;29;20031;-55
2024/01/25 09:48:28;;;;;;;7.28;2.90;;;10.90;99.90;;;;;;4915536;29;20028;-54
2024/01/25 09:50:55;;;;;;;14.02;2.90;;;11.00;99.90;;;;;;4915379;29;20383;-58
2024/01/25 09:53:23;;;;;;;13.68;3.20;;;11.00;99.90;;;;;;4925333;29;20032;-58
2024/01/25 09:56:09;;;;;;;12.13;2.95;;;11.10;99.90;;;;;;4930039;29;20024;-58
2024/01/25 09:58:43;;;;;;;9.20;2.55;;;11.10;99.90;;;;;;4923319;29;20020;-57
2024/01/25 10:01:10;;;;;;;9.63;2.40;;;11.20;99.90;;;;;;4924522;29;20052;-57
2024/01/25 10:03:36;;;;;;;13.75;3.55;;;11.20;99.90;;;;;;4914750;29;20072;-58
2024/01/25 10:06:03;;;;;;;19.08;3.72;;;11.20;99.90;;;;;;4914392;29;20028;-57
2024/01/25 10:08:29;;;;;;;19.25;3.13;;;11.40;99.90;;;;;;4914806;29;20031;-57
2024/01/25 10:10:55;;;;;;;16.20;2.85;;;11.40;99.90;;;;;;4914405;29;20452;-58
2024/01/25 10:13:22;;;;;;;19.90;2.95;;;11.40;99.90;;;;;;4914271;29;20115;-57
2024/01/25 10:15:48;;;;;;;10.50;2.67;;;11.40;99.90;;;;;;4914304;29;20028;-57
2024/01/25 10:18:16;;;;;;;15.13;2.67;;;11.50;99.90;;;;;;4914414;29;20028;-57
2024/01/25 10:20:42;;;;;;;13.18;2.47;;;11.50;99.90;;;;;;4912916;29;20025;-57
2024/01/25 10:23:09;;;;;;;9.98;2.58;;;11.50;99.90;;;;;;4914481;29;20040;-57
2024/01/25 10:25:38;;;;;;;17.33;2.85;;;11.50;99.90;;;;;;4914065;29;20574;-57
2024/01/25 10:28:07;;;;;;;17.98;3.58;;;11.50;99.90;;;;;;4914139;29;20526;-57
2024/01/25 10:30:35;;;;;;;16.40;2.95;;;11.60;99.90;;;;;;4914173;29;20036;-59
2024/01/25 10:33:01;;;;;;;12.85;2.75;;;11.60;99.90;;;;;;4913951;29;20204;-59
2024/01/25 10:35:28;;;;;;;10.68;2.80;;;11.70;99.90;;;;;;4913768;29;20560;-55
2024/01/25 10:37:54;;;;;;;12.43;2.85;;;11.70;99.90;;;;;;4913751;29;20036;-49
2024/01/25 10:40:21;;;;;;;10.43;2.30;;;11.70;99.90;;;;;;4904001;29;20396;-55
2024/01/25 10:42:47;;;;;;;12.02;2.50;;;11.60;99.90;;;;;;4912716;29;20522;-55
2024/01/25 10:45:13;;;;;;;14.93;2.45;;;11.50;99.90;;;;;;4920762;29;20047;-57
2024/01/25 10:47:40;;;;;;;12.23;2.60;;;11.50;99.90;;;;;;4917205;29;20476;-61
2024/01/25 10:50:11;;;;;;;20.42;3.15;;;11.40;99.90;;;;;;4919812;29;20032;-56
2024/01/25 10:52:37;;;;;;;10.15;2.40;;;11.40;99.90;;;;;;4917279;29;20059;-56
2024/01/25 10:55:05;;;;;;;11.10;2.22;;;11.30;99.90;;;;;;4920002;29;20103;-56
2024/01/25 10:57:42;;;;;;;9.02;2.38;;;11.30;99.90;;;;;;4922106;29;20575;-50
2024/01/25 11:00:10;;;;;;;12.40;3.42;;;11.30;99.90;;;;;;4909983;29;20036;-51
2024/01/25 11:02:40;;;;;;;6.97;1.92;;;11.30;99.90;;;;;;4914130;29;20069;-52
2024/01/25 11:05:11;;;;;;;10.50;2.45;;;11.30;99.90;;;;;;4914000;29;20059;-49
2024/01/25 11:07:45;;;;;;;14.55;2.42;;;11.30;99.90;;;;;;4916120;29;20036;-56
2024/01/25 11:10:19;;;;;;;8.73;2.00;;;11.30;99.90;;;;;;4915019;29;20035;-57
2024/01/25 11:13:03;;;;;;;10.60;2.47;;;11.30;99.90;;;;;;4918129;29;20106;-59
2024/01/25 11:15:34;;;;;;;8.23;1.95;;;11.40;99.90;;;;;;4920731;29;20115;-56
2024/01/25 11:18:01;;;;;;;8.25;1.70;;;11.40;99.90;;;;;;4913534;29;20032;-51
2024/01/25 11:20:28;;;;;;;12.80;2.22;;;11.50;99.90;;;;;;4923265;29;20042;-53
2024/01/25 11:23:01;;;;;;;11.23;2.15;;;11.50;99.90;;;;;;4930343;29;20039;-52
2024/01/25 11:25:31;;;;;;;8.63;2.33;;;11.50;99.90;;;;;;4925004;29;20130;-57
2024/01/25 11:27:57;;;;;;;11.77;2.10;;;11.60;99.90;;;;;;4935993;29;20475;-54
2024/01/25 11:30:23;;;;;;;12.45;2.63;;;11.70;99.90;;;;;;4936138;29;20052;-52
2024/01/25 11:32:49;;;;;;;9.27;1.83;;;11.70;99.90;;;;;;4936093;29;20034;-50
2024/01/25 11:35:19;;;;;;;8.52;2.03;;;11.70;99.90;;;;;;4935940;29;20039;-53
2024/01/25 11:37:45;;;;;;;8.05;1.80;;;11.80;99.90;;;;;;4935774;29;20035;-51
2024/01/25 11:40:12;;;;;;;14.15;2.50;;;11.80;99.90;;;;;;4935749;29;20399;-52
2024/01/25 11:42:39;;;;;;;11.13;2.03;;;11.80;99.90;;;;;;4935778;29;20038;-51
2024/01/25 11:45:08;;;;;;;8.40;2.75;;;11.70;99.90;;;;;;4935637;29;20712;-56
2024/01/25 11:47:34;;;;;;;10.30;2.60;;;11.70;99.90;;;;;;4926898;29;20035;-57
2024/01/25 11:50:00;;;;;;;9.50;1.92;;;11.70;99.90;;;;;;4931076;29;20032;-60
2024/01/25 11:52:26;;;;;;;10.55;2.38;;;11.70;99.90;;;;;;4935616;29;20391;-51
2024/01/25 11:54:52;;;;;;;12.73;2.10;;;11.60;99.90;;;;;;4935454;29;20019;-50
2024/01/25 11:57:18;;;;;;;9.95;1.60;;;11.60;99.90;;;;;;4935660;29;20032;-52
2024/01/25 11:59:45;;;;;;;7.53;1.23;;;11.60;99.90;;;;;;4935467;29;20098;-52
2024/01/25 12:02:12;;;;;;;9.85;1.55;;;11.60;99.90;;;;;;4921454;29;20036;-53
2024/01/25 12:04:39;;;;;;;5.82;1.92;;;11.60;99.90;;;;;;4916272;29;20500;-57
2024/01/25 12:07:05;;;;;;;9.20;1.35;;;11.60;99.90;;;;;;4911221;29;20420;-49
2024/01/25 12:09:31;;;;;;;6.25;1.15;;;11.70;99.90;;;;;;4905594;29;20028;-52
2024/01/25 12:11:56;;;;;;;5.95;1.38;;;11.70;99.90;;;;;;4910822;29;20475;-53
2024/01/25 12:14:24;;;;;;;5.57;1.23;;;11.70;99.90;;;;;;4921078;29;20040;-53
2024/01/25 12:16:50;;;;;;;2.60;1.08;;;11.70;99.90;;;;;;4919130;29;20047;-52
2024/01/25 12:19:16;;;;;;;7.43;1.30;;;11.70;99.90;;;;;;4919485;29;20421;-51
2024/01/25 12:21:44;;;;;;;5.28;1.35;;;11.60;99.90;;;;;;4919378;29;20039;-54
2024/01/25 12:24:10;;;;;;;5.38;1.50;;;11.60;99.90;;;;;;4918650;29;20443;-55
2024/01/25 12:26:36;;;;;;;7.70;2.70;;;11.60;99.90;;;;;;4921560;29;20543;-57
2024/01/25 12:29:03;;;;;;;5.50;1.65;;;11.60;99.90;;;;;;4914649;29;20706;-54
2024/01/25 12:31:28;;;;;;;6.75;1.35;;;11.60;99.90;;;;;;4922296;29;20067;-52
2024/01/25 12:33:54;;;;;;;9.77;1.63;;;11.60;99.90;;;;;;4922224;29;20157;-55
2024/01/25 12:36:20;;;;;;;6.13;1.25;;;11.70;99.90;;;;;;4921086;29;20043;-55
2024/01/25 12:38:46;;;;;;;6.40;1.40;;;11.70;99.90;;;;;;4923525;29;20457;-57
2024/01/25 12:41:11;;;;;;;4.55;1.17;;;11.80;99.90;;;;;;4920406;29;20036;-58